createdAt,value
2022-12-06T00:00:41.736Z,1.3
2022-12-06T00:01:42.104Z,1.3
2022-12-06T00:02:42.366Z,1.3
2022-12-06T00:03:42.693Z,1.3
2022-12-06T00:04:42.978Z,1.3
2022-12-06T00:05:46.666Z,1.3
2022-12-06T00:06:46.840Z,1.3
2022-12-06T00:07:47.168Z,1.3
2022-12-06T00:08:47.399Z,1.3
2022-12-06T00:09:47.537Z,1.3
2022-12-06T00:10:47.669Z,1.3
2022-12-06T00:11:47.803Z,1.3
2022-12-06T00:12:47.939Z,1.3
2022-12-06T00:13:48.070Z,1.3
2022-12-06T00:14:48.204Z,1.3
2022-12-06T00:15:48.336Z,1.3
2022-12-06T00:16:48.538Z,1.3
2022-12-06T00:17:48.733Z,1.3
2022-12-06T00:18:48.866Z,1.3
2022-12-06T00:19:48.996Z,1.3
2022-12-06T00:20:49.129Z,1.3
2022-12-06T00:21:49.268Z,1.3
2022-12-06T00:22:49.401Z,1.3
2022-12-06T00:23:49.538Z,1.3
2022-12-06T00:24:49.671Z,1.4
2022-12-06T00:25:49.806Z,1.4
2022-12-06T00:26:49.940Z,1.4
2022-12-06T00:27:50.087Z,1.4
2022-12-06T00:28:50.218Z,1.4
2022-12-06T00:29:50.349Z,1.4
2022-12-06T00:30:50.480Z,1.4
2022-12-06T00:31:50.918Z,1.4
2022-12-06T00:32:51.305Z,1.4
2022-12-06T00:33:51.441Z,1.4
2022-12-06T00:34:51.573Z,1.4
2022-12-06T00:35:51.709Z,1.4
2022-12-06T00:36:51.855Z,1.4
2022-12-06T00:37:51.999Z,1.4
2022-12-06T00:38:52.140Z,1.4
2022-12-06T00:39:52.282Z,1.4
2022-12-06T00:40:52.413Z,1.4
2022-12-06T00:41:52.542Z,1.4
2022-12-06T00:42:52.666Z,1.4
2022-12-06T00:43:52.798Z,1.4
2022-12-06T00:44:52.931Z,1.5
2022-12-06T00:45:53.246Z,1.5
2022-12-06T00:46:53.487Z,1.5
2022-12-06T00:47:53.619Z,1.5
2022-12-06T00:48:53.749Z,1.5
2022-12-06T00:49:53.877Z,1.5
2022-12-06T00:50:54.006Z,1.5
2022-12-06T00:51:54.159Z,1.5
2022-12-06T00:52:54.296Z,1.5
2022-12-06T00:53:54.429Z,1.5
2022-12-06T00:54:54.562Z,1.7
2022-12-06T00:55:54.692Z,1.7
2022-12-06T00:56:54.914Z,1.7
2022-12-06T00:57:55.158Z,1.7
2022-12-06T00:58:55.300Z,1.7
2022-12-06T00:59:55.440Z,1.7
2022-12-06T01:00:55.715Z,1.7
2022-12-06T01:01:55.914Z,1.7
2022-12-06T01:02:56.177Z,1.7
2022-12-06T01:03:56.404Z,1.7
2022-12-06T01:04:56.546Z,1.8
2022-12-06T01:05:56.675Z,1.8
2022-12-06T01:06:56.813Z,1.8
2022-12-06T01:07:57.169Z,1.8
2022-12-06T01:08:57.469Z,1.8
2022-12-06T01:09:58.247Z,1.8
2022-12-06T01:10:59.019Z,1.8
2022-12-06T01:11:59.159Z,1.8
2022-12-06T01:12:59.291Z,1.8
2022-12-06T01:13:59.504Z,1.8
2022-12-06T01:14:59.661Z,2
2022-12-06T01:15:59.791Z,2
2022-12-06T01:17:00.037Z,2
2022-12-06T01:18:00.333Z,2
2022-12-06T01:19:00.477Z,2
2022-12-06T01:20:01.373Z,2
2022-12-06T01:21:02.162Z,2
2022-12-06T01:22:02.292Z,2
2022-12-06T01:23:02.430Z,2
2022-12-06T01:24:02.572Z,2
2022-12-06T01:25:02.705Z,2.09
2022-12-06T01:26:02.852Z,2.09
2022-12-06T01:27:02.986Z,2.09
2022-12-06T01:28:03.126Z,2.09
2022-12-06T01:29:03.259Z,2.09
2022-12-06T01:30:03.399Z,2.09
2022-12-06T01:31:03.660Z,2.09
2022-12-06T01:32:03.875Z,2.09
2022-12-06T01:33:04.009Z,2.09
2022-12-06T01:34:04.144Z,2.09
2022-12-06T01:35:04.283Z,2.2
2022-12-06T01:36:04.428Z,2.2
2022-12-06T01:37:04.554Z,2.2
2022-12-06T01:38:06.508Z,2.2
2022-12-06T01:39:07.259Z,2.2
2022-12-06T01:40:07.430Z,2.2
2022-12-06T01:41:07.564Z,2.2
2022-12-06T01:42:07.701Z,2.2
2022-12-06T01:43:07.837Z,2.2
2022-12-06T01:44:07.973Z,2.2
2022-12-06T01:45:08.107Z,2.2
2022-12-06T01:46:08.343Z,2.2
2022-12-06T01:47:08.597Z,2.2
2022-12-06T01:48:08.728Z,2.2
2022-12-06T01:49:08.868Z,2.2
2022-12-06T01:50:08.996Z,2.2
2022-12-06T01:51:09.126Z,2.2
2022-12-06T01:52:09.258Z,2.2
2022-12-06T01:53:09.392Z,2.2
2022-12-06T01:54:09.520Z,2.2
2022-12-06T01:55:09.652Z,2.2
2022-12-06T01:56:09.787Z,2.2
2022-12-06T01:57:09.918Z,2.2
2022-12-06T01:58:10.055Z,2.2
2022-12-06T01:59:10.196Z,2.2
2022-12-06T02:00:10.333Z,2.2
2022-12-06T02:01:10.713Z,2.2
2022-12-06T02:02:11.112Z,2.2
2022-12-06T02:03:11.322Z,2.2
2022-12-06T02:04:11.466Z,2.2
2022-12-06T02:05:11.607Z,2.3
2022-12-06T02:06:11.744Z,2.3
2022-12-06T02:07:11.879Z,2.3
2022-12-06T02:08:12.241Z,2.3
2022-12-06T02:09:12.441Z,2.3
2022-12-06T02:10:12.575Z,2.3
2022-12-06T02:11:12.736Z,2.3
2022-12-06T02:12:12.871Z,2.3
2022-12-06T02:13:13.007Z,2.3
2022-12-06T02:14:13.138Z,2.3
2022-12-06T02:15:13.272Z,2.3
2022-12-06T02:16:13.421Z,2.3
2022-12-06T02:17:13.842Z,2.3
2022-12-06T02:18:14.154Z,2.3
2022-12-06T02:19:14.288Z,2.3
2022-12-06T02:20:14.421Z,2.3
2022-12-06T02:21:14.557Z,2.3
2022-12-06T02:22:14.691Z,2.3
2022-12-06T02:23:14.820Z,2.3
2022-12-06T02:24:14.954Z,2.3
2022-12-06T02:25:15.094Z,2.3
2022-12-06T02:26:15.224Z,2.3
2022-12-06T02:27:15.357Z,2.3
2022-12-06T02:28:15.495Z,2.3
2022-12-06T02:29:15.626Z,2.3
2022-12-06T02:30:15.761Z,2.3
2022-12-06T02:31:16.018Z,2.3
2022-12-06T02:32:16.393Z,2.3
2022-12-06T02:33:16.529Z,2.3
2022-12-06T02:34:16.659Z,2.3
2022-12-06T02:35:16.798Z,2.3
2022-12-06T02:36:16.931Z,2.3
2022-12-06T02:37:17.073Z,2.3
2022-12-06T02:38:17.203Z,2.3
2022-12-06T02:39:17.332Z,2.3
2022-12-06T02:40:17.469Z,2.3
2022-12-06T02:41:17.601Z,2.3
2022-12-06T02:42:17.750Z,2.3
2022-12-06T02:43:17.880Z,2.3
2022-12-06T02:44:18.022Z,2.3
2022-12-06T02:45:18.151Z,2.4
2022-12-06T02:46:18.427Z,2.4
2022-12-06T02:47:18.784Z,2.4
2022-12-06T02:48:18.927Z,2.4
2022-12-06T02:49:19.067Z,2.4
2022-12-06T02:50:19.200Z,2.4
2022-12-06T02:51:19.339Z,2.4
2022-12-06T02:52:19.470Z,2.4
2022-12-06T02:53:19.601Z,2.4
2022-12-06T02:54:19.733Z,2.5
2022-12-06T02:55:19.875Z,2.5
2022-12-06T02:56:20.029Z,2.5
2022-12-06T02:57:20.158Z,2.5
2022-12-06T02:58:20.297Z,2.5
2022-12-06T02:59:20.426Z,2.5
2022-12-06T03:00:20.553Z,2.5
2022-12-06T03:01:20.918Z,2.5
2022-12-06T03:02:21.270Z,2.5
2022-12-06T03:03:21.472Z,2.5
2022-12-06T03:04:21.605Z,2.6
2022-12-06T03:05:21.735Z,2.6
2022-12-06T03:06:21.872Z,2.6
2022-12-06T03:07:22.011Z,2.6
2022-12-06T03:08:22.310Z,2.6
2022-12-06T03:09:22.558Z,2.6
2022-12-06T03:10:22.695Z,2.6
2022-12-06T03:11:22.826Z,2.6
2022-12-06T03:12:22.967Z,2.6
2022-12-06T03:13:23.098Z,2.6
2022-12-06T03:14:23.244Z,2.6
2022-12-06T03:15:23.484Z,2.6
2022-12-06T03:16:23.963Z,2.6
2022-12-06T03:17:24.169Z,2.6
2022-12-06T03:18:24.298Z,2.6
2022-12-06T03:19:24.445Z,2.6
2022-12-06T03:20:24.587Z,2.6
2022-12-06T03:21:24.719Z,2.6
2022-12-06T03:22:24.851Z,2.6
2022-12-06T03:23:24.979Z,2.6
2022-12-06T03:24:25.110Z,2.7
2022-12-06T03:25:25.243Z,2.7
2022-12-06T03:26:25.373Z,2.7
2022-12-06T03:27:25.508Z,2.7
2022-12-06T03:28:25.648Z,2.7
2022-12-06T03:29:25.781Z,2.7
2022-12-06T03:30:25.909Z,2.7
2022-12-06T03:31:26.170Z,2.7
2022-12-06T03:32:26.435Z,2.7
2022-12-06T03:33:26.564Z,2.7
2022-12-06T03:34:26.701Z,2.7
2022-12-06T03:35:26.835Z,2.7
2022-12-06T03:36:26.965Z,2.7
2022-12-06T03:37:27.102Z,2.7
2022-12-06T03:38:27.235Z,2.7
2022-12-06T03:39:27.371Z,2.7
2022-12-06T03:40:27.503Z,2.7
2022-12-06T03:41:27.633Z,2.7
2022-12-06T03:42:27.766Z,2.7
2022-12-06T03:43:27.907Z,2.7
2022-12-06T03:44:28.045Z,2.7
2022-12-06T03:45:28.292Z,2.7
2022-12-06T03:46:28.736Z,2.7
2022-12-06T03:47:29.128Z,2.7
2022-12-06T03:48:29.263Z,2.7
2022-12-06T03:49:29.399Z,2.7
2022-12-06T03:50:29.530Z,2.7
2022-12-06T03:51:29.665Z,2.7
2022-12-06T03:52:29.803Z,2.7
2022-12-06T03:53:29.952Z,2.7
2022-12-06T03:54:30.091Z,2.6
2022-12-06T03:55:30.220Z,2.6
2022-12-06T03:56:30.347Z,2.6
2022-12-06T03:57:30.477Z,2.6
2022-12-06T03:58:30.610Z,2.6
2022-12-06T03:59:30.762Z,2.6
2022-12-06T04:00:30.894Z,2.6
2022-12-06T04:01:31.120Z,2.6
2022-12-06T04:02:31.335Z,2.6
2022-12-06T04:03:31.629Z,2.6
2022-12-06T04:04:31.903Z,2.5
2022-12-06T04:05:32.040Z,2.5
2022-12-06T04:06:32.173Z,2.5
2022-12-06T04:07:32.468Z,2.5
2022-12-06T04:08:32.742Z,2.5
2022-12-06T04:09:32.876Z,2.5
2022-12-06T04:10:33.012Z,2.5
2022-12-06T04:11:33.145Z,2.5
2022-12-06T04:12:33.279Z,2.5
2022-12-06T04:13:33.419Z,2.5
2022-12-06T04:14:33.556Z,2.4
2022-12-06T04:15:33.691Z,2.4
2022-12-06T04:16:33.964Z,2.4
2022-12-06T04:17:34.230Z,2.4
2022-12-06T04:18:34.361Z,2.4
2022-12-06T04:19:34.492Z,2.4
2022-12-06T04:20:34.624Z,2.4
2022-12-06T04:21:34.772Z,2.4
2022-12-06T04:22:34.902Z,2.4
2022-12-06T04:23:35.033Z,2.4
2022-12-06T04:24:35.182Z,2.4
2022-12-06T04:25:35.318Z,2.4
2022-12-06T04:26:35.448Z,2.4
2022-12-06T04:27:35.583Z,2.4
2022-12-06T04:28:35.713Z,2.4
2022-12-06T04:29:35.841Z,2.4
2022-12-06T04:30:35.972Z,2.4
2022-12-06T04:31:36.254Z,2.4
2022-12-06T04:32:36.475Z,2.4
2022-12-06T04:33:36.617Z,2.4
2022-12-06T04:34:36.762Z,2.3
2022-12-06T04:35:36.901Z,2.3
2022-12-06T04:36:37.034Z,2.3
2022-12-06T04:37:37.163Z,2.3
2022-12-06T04:38:37.298Z,2.3
2022-12-06T04:39:37.433Z,2.3
2022-12-06T04:40:37.567Z,2.3
2022-12-06T04:41:37.704Z,2.3
2022-12-06T04:42:37.838Z,2.3
2022-12-06T04:43:37.973Z,2.3
2022-12-06T04:44:38.108Z,2.09
2022-12-06T04:45:38.245Z,2.09
2022-12-06T04:46:38.550Z,2.09
2022-12-06T04:47:38.819Z,2.09
2022-12-06T04:48:38.957Z,2.09
2022-12-06T04:49:39.094Z,2.09
2022-12-06T04:50:39.234Z,2.09
2022-12-06T04:51:39.375Z,2.09
2022-12-06T04:52:39.505Z,2.09
2022-12-06T04:53:39.634Z,2.09
2022-12-06T04:54:39.766Z,2
2022-12-06T04:55:39.900Z,2
2022-12-06T04:56:40.034Z,2
2022-12-06T04:57:40.168Z,2
2022-12-06T04:58:40.307Z,2
2022-12-06T04:59:40.440Z,2
2022-12-06T05:00:40.624Z,2
2022-12-06T05:01:40.798Z,2
2022-12-06T05:02:40.930Z,2
2022-12-06T05:03:44.700Z,2
2022-12-06T05:04:44.940Z,2
2022-12-06T05:05:45.074Z,2
2022-12-06T05:06:45.202Z,2
2022-12-06T05:07:45.488Z,2
2022-12-06T05:08:45.729Z,2
2022-12-06T05:09:45.865Z,2
2022-12-06T05:10:45.999Z,2
2022-12-06T05:11:46.133Z,2
2022-12-06T05:12:46.265Z,2
2022-12-06T05:13:46.394Z,2
2022-12-06T05:14:46.529Z,2
2022-12-06T05:15:46.659Z,2
2022-12-06T05:16:47.000Z,2
2022-12-06T05:17:47.279Z,2
2022-12-06T05:18:47.415Z,2
2022-12-06T05:19:47.549Z,2
2022-12-06T05:20:47.679Z,2
2022-12-06T05:21:47.813Z,2
2022-12-06T05:22:47.947Z,2
2022-12-06T05:23:48.077Z,2
2022-12-06T05:24:48.215Z,2
2022-12-06T05:25:48.346Z,2
2022-12-06T05:26:48.481Z,2
2022-12-06T05:27:48.614Z,2
2022-12-06T05:28:48.750Z,2
2022-12-06T05:29:48.885Z,2
2022-12-06T05:30:49.020Z,2
2022-12-06T05:31:49.374Z,2
2022-12-06T05:32:57.006Z,2
2022-12-06T05:33:57.364Z,2
2022-12-06T05:34:57.500Z,2
2022-12-06T05:35:57.631Z,2
2022-12-06T05:36:57.759Z,2
2022-12-06T05:37:57.889Z,2
2022-12-06T05:38:58.026Z,2
2022-12-06T05:39:58.935Z,2
2022-12-06T05:40:59.893Z,2
2022-12-06T05:42:00.038Z,2
2022-12-06T05:43:00.169Z,2
2022-12-06T05:44:00.302Z,2
2022-12-06T05:45:00.435Z,2.09
2022-12-06T05:46:00.731Z,2.09
2022-12-06T05:47:00.936Z,2.09
2022-12-06T05:48:01.067Z,2.09
2022-12-06T05:49:01.199Z,2.09
2022-12-06T05:50:01.965Z,2.09
2022-12-06T05:51:02.608Z,2.09
2022-12-06T05:52:04.492Z,2.09
2022-12-06T05:53:04.649Z,2.09
2022-12-06T05:54:04.783Z,2.09
2022-12-06T05:55:04.945Z,2.09
2022-12-06T05:56:05.089Z,2.09
2022-12-06T05:57:05.231Z,2.09
2022-12-06T05:58:05.365Z,2.09
2022-12-06T05:59:05.502Z,2.09
2022-12-06T06:00:05.633Z,2.09
2022-12-06T06:01:05.768Z,2.09
2022-12-06T06:02:06.132Z,2.09
2022-12-06T06:03:06.657Z,2.09
2022-12-06T06:04:06.983Z,2.09
2022-12-06T06:05:07.116Z,2.2
2022-12-06T06:06:07.249Z,2.2
2022-12-06T06:07:07.402Z,2.2
2022-12-06T06:08:07.640Z,2.2
2022-12-06T06:09:07.846Z,2.2
2022-12-06T06:10:07.974Z,2.2
2022-12-06T06:11:08.119Z,2.2
2022-12-06T06:12:13.033Z,2.2
2022-12-06T06:13:13.212Z,2.2
2022-12-06T06:14:13.343Z,2.2
2022-12-06T06:15:13.479Z,2.2
2022-12-06T06:16:13.675Z,2.2
2022-12-06T06:17:13.882Z,2.2
2022-12-06T06:18:14.010Z,2.2
2022-12-06T06:19:14.160Z,2.2
2022-12-06T06:20:14.290Z,2.2
2022-12-06T06:21:14.421Z,2.2
2022-12-06T06:22:14.561Z,2.2
2022-12-06T06:23:14.707Z,2.2
2022-12-06T06:24:14.836Z,2.2
2022-12-06T06:25:14.975Z,2.2
2022-12-06T06:26:15.119Z,2.2
2022-12-06T06:27:15.248Z,2.2
2022-12-06T06:28:15.378Z,2.2
2022-12-06T06:29:15.514Z,2.2
2022-12-06T06:30:15.643Z,2.2
2022-12-06T06:31:15.786Z,2.2
2022-12-06T06:32:16.054Z,2.2
2022-12-06T06:33:16.361Z,2.2
2022-12-06T06:34:16.499Z,2.2
2022-12-06T06:35:16.636Z,2.3
2022-12-06T06:36:16.770Z,2.3
2022-12-06T06:37:16.906Z,2.3
2022-12-06T06:38:17.040Z,2.3
2022-12-06T06:39:17.169Z,2.3
2022-12-06T06:40:17.301Z,2.3
2022-12-06T06:41:17.429Z,2.3
2022-12-06T06:42:17.560Z,2.3
2022-12-06T06:43:17.701Z,2.3
2022-12-06T06:44:18.034Z,2.5
2022-12-06T06:45:18.176Z,2.5
2022-12-06T06:46:18.507Z,2.5
2022-12-06T06:47:18.740Z,2.5
2022-12-06T06:48:18.878Z,2.5
2022-12-06T06:49:19.015Z,2.5
2022-12-06T06:50:19.153Z,2.5
2022-12-06T06:51:19.292Z,2.5
2022-12-06T06:52:19.430Z,2.5
2022-12-06T06:53:19.574Z,2.5
2022-12-06T06:54:19.704Z,2.6
2022-12-06T06:55:19.846Z,2.6
2022-12-06T06:56:20.007Z,2.6
2022-12-06T06:57:20.147Z,2.6
2022-12-06T06:58:20.281Z,2.6
2022-12-06T06:59:20.412Z,2.6
2022-12-06T07:00:20.545Z,2.6
2022-12-06T07:01:20.870Z,2.6
2022-12-06T07:02:21.273Z,2.6
2022-12-06T07:03:21.495Z,2.6
2022-12-06T07:04:21.631Z,2.7
2022-12-06T07:05:21.760Z,2.7
2022-12-06T07:06:21.902Z,2.7
2022-12-06T07:07:22.034Z,2.7
2022-12-06T07:08:22.320Z,2.7
2022-12-06T07:09:22.603Z,2.7
2022-12-06T07:10:22.740Z,2.7
2022-12-06T07:11:22.871Z,2.7
2022-12-06T07:12:23.012Z,2.7
2022-12-06T07:13:23.148Z,2.7
2022-12-06T07:14:23.284Z,2.7
2022-12-06T07:15:23.414Z,2.7
2022-12-06T07:16:23.682Z,2.7
2022-12-06T07:17:23.968Z,2.7
2022-12-06T07:18:24.104Z,2.7
2022-12-06T07:19:24.234Z,2.7
2022-12-06T07:20:24.365Z,2.7
2022-12-06T07:21:24.494Z,2.7
2022-12-06T07:22:24.628Z,2.7
2022-12-06T07:23:24.765Z,2.7
2022-12-06T07:24:24.907Z,2.7
2022-12-06T07:25:25.036Z,2.7
2022-12-06T07:26:25.167Z,2.7
2022-12-06T07:27:25.302Z,2.7
2022-12-06T07:28:25.443Z,2.7
2022-12-06T07:29:25.576Z,2.7
2022-12-06T07:30:28.558Z,2.7
2022-12-06T07:31:28.873Z,2.7
2022-12-06T07:32:29.175Z,2.7
2022-12-06T07:33:29.310Z,2.7
2022-12-06T07:34:29.451Z,2.7
2022-12-06T07:36:11.780Z,2.7
2022-12-06T07:37:14.068Z,2.7
2022-12-06T07:38:14.208Z,2.7
2022-12-06T07:39:15.339Z,2.7
2022-12-06T07:40:15.473Z,2.7
2022-12-06T07:41:15.607Z,2.7
2022-12-06T07:42:15.734Z,2.7
2022-12-06T07:43:15.863Z,2.7
2022-12-06T07:44:15.997Z,2.7
2022-12-06T07:45:16.137Z,2.7
2022-12-06T07:46:16.351Z,2.7
2022-12-06T07:47:16.612Z,2.7
2022-12-06T07:48:16.829Z,2.7
2022-12-06T07:49:16.982Z,2.7
2022-12-06T07:50:18.801Z,2.7
2022-12-06T07:51:19.011Z,2.7
2022-12-06T07:52:19.141Z,2.7
2022-12-06T07:53:19.270Z,2.7
2022-12-06T07:54:19.401Z,2.7
2022-12-06T07:55:19.535Z,2.7
2022-12-06T07:56:19.665Z,2.7
2022-12-06T07:57:19.801Z,2.7
2022-12-06T07:58:19.934Z,2.7
2022-12-06T07:59:20.078Z,2.7
2022-12-06T08:00:20.235Z,2.7
2022-12-06T08:01:20.571Z,2.7
2022-12-06T08:02:20.832Z,2.7
2022-12-06T08:03:20.964Z,2.7
2022-12-06T08:04:21.349Z,2.7
2022-12-06T08:05:21.658Z,2.7
2022-12-06T08:06:21.785Z,2.7
2022-12-06T08:07:21.915Z,2.7
2022-12-06T08:08:28.976Z,2.7
2022-12-06T08:09:29.593Z,2.7
2022-12-06T08:10:29.729Z,2.7
2022-12-06T08:11:29.870Z,2.7
2022-12-06T08:12:30.314Z,2.7
2022-12-06T08:13:30.455Z,2.7
2022-12-06T08:14:30.590Z,2.7
2022-12-06T08:15:30.731Z,2.7
2022-12-06T08:16:31.125Z,2.7
2022-12-06T08:17:31.359Z,2.7
2022-12-06T08:18:31.493Z,2.7
2022-12-06T08:19:31.632Z,2.7
2022-12-06T08:20:31.765Z,2.7
2022-12-06T08:21:31.923Z,2.7
2022-12-06T08:22:32.056Z,2.7
2022-12-06T08:23:34.942Z,2.7
2022-12-06T08:24:35.346Z,2.7
2022-12-06T08:25:35.486Z,2.7
2022-12-06T08:26:35.614Z,2.7
2022-12-06T08:27:35.750Z,2.7
2022-12-06T08:28:35.881Z,2.7
2022-12-06T08:29:36.013Z,2.7
2022-12-06T08:30:36.297Z,2.7
2022-12-06T08:31:36.727Z,2.7
2022-12-06T08:32:37.155Z,2.7
2022-12-06T08:33:37.302Z,2.7
2022-12-06T08:34:37.456Z,2.8
2022-12-06T08:35:37.596Z,2.8
2022-12-06T08:36:37.763Z,2.8
2022-12-06T08:37:37.905Z,2.8
2022-12-06T08:38:38.050Z,2.8
2022-12-06T08:39:38.182Z,2.8
2022-12-06T08:40:38.318Z,2.8
2022-12-06T08:41:38.455Z,2.8
2022-12-06T08:42:38.591Z,2.8
2022-12-06T08:43:38.731Z,2.8
2022-12-06T08:44:38.957Z,2.8
2022-12-06T08:45:39.166Z,2.8
2022-12-06T08:46:39.400Z,2.8
2022-12-06T08:47:39.595Z,2.8
2022-12-06T08:48:43.704Z,2.8
2022-12-06T08:49:43.900Z,2.9
2022-12-06T08:50:44.036Z,2.9
2022-12-06T08:51:44.192Z,2.9
2022-12-06T08:52:44.331Z,2.9
2022-12-06T08:53:44.479Z,2.9
2022-12-06T08:54:44.616Z,3
2022-12-06T08:55:44.747Z,3
2022-12-06T08:56:44.880Z,3
2022-12-06T08:57:45.011Z,3
2022-12-06T08:58:45.153Z,3
2022-12-06T08:59:45.288Z,3
2022-12-06T09:00:45.424Z,3
2022-12-06T09:01:45.711Z,3
2022-12-06T09:02:45.948Z,3
2022-12-06T09:03:46.092Z,3
2022-12-06T09:04:46.436Z,3.3
2022-12-06T09:05:46.744Z,3.3
2022-12-06T09:06:46.880Z,3.3
2022-12-06T09:07:47.185Z,3.3
2022-12-06T09:08:47.375Z,3.3
2022-12-06T09:09:47.515Z,3.3
2022-12-06T09:10:47.652Z,3.3
2022-12-06T09:11:47.784Z,3.3
2022-12-06T09:12:47.919Z,3.3
2022-12-06T09:13:48.053Z,3.3
2022-12-06T09:14:48.190Z,3.8
2022-12-06T09:15:48.415Z,3.8
2022-12-06T09:16:48.623Z,3.8
2022-12-06T09:17:48.755Z,3.8
2022-12-06T09:18:48.890Z,3.8
2022-12-06T09:19:49.046Z,3.8
2022-12-06T09:20:49.177Z,3.8
2022-12-06T09:21:49.317Z,3.8
2022-12-06T09:22:49.446Z,3.8
2022-12-06T09:23:49.575Z,3.8
2022-12-06T09:24:49.709Z,4.4
2022-12-06T09:25:49.841Z,4.4
2022-12-06T09:26:49.974Z,4.4
2022-12-06T09:27:50.121Z,4.4
2022-12-06T09:28:50.260Z,4.4
2022-12-06T09:29:50.394Z,4.4
2022-12-06T09:30:50.627Z,4.4
2022-12-06T09:31:50.919Z,4.4
2022-12-06T09:32:51.140Z,4.4
2022-12-06T09:33:51.278Z,4.4
2022-12-06T09:34:51.417Z,4.9
2022-12-06T09:35:51.549Z,4.9
2022-12-06T09:36:51.702Z,4.9
2022-12-06T09:37:51.911Z,4.9
2022-12-06T09:38:52.052Z,4.9
2022-12-06T09:39:52.197Z,4.9
2022-12-06T09:40:52.325Z,4.9
2022-12-06T09:41:52.454Z,4.9
2022-12-06T09:42:52.585Z,4.9
2022-12-06T09:43:52.721Z,4.9
2022-12-06T09:44:52.852Z,5.6
2022-12-06T09:45:52.989Z,5.6
2022-12-06T09:46:53.244Z,5.6
2022-12-06T09:47:53.480Z,5.6
2022-12-06T09:48:53.613Z,5.6
2022-12-06T09:49:53.749Z,5.6
2022-12-06T09:50:53.879Z,5.6
2022-12-06T09:51:54.025Z,5.6
2022-12-06T09:52:54.169Z,5.6
2022-12-06T09:53:54.310Z,5.6
2022-12-06T09:55:00.688Z,6.5
2022-12-06T09:56:01.061Z,6.6
2022-12-06T09:57:01.193Z,6.6
2022-12-06T09:58:01.328Z,6.6
2022-12-06T09:59:01.468Z,6.6
2022-12-06T10:00:02.250Z,6.6
2022-12-06T10:01:06.156Z,7
2022-12-06T10:02:06.416Z,7
2022-12-06T10:03:06.730Z,7
2022-12-06T10:04:06.989Z,7
2022-12-06T10:05:07.124Z,7.3
2022-12-06T10:06:07.262Z,7.3
2022-12-06T10:07:07.400Z,7.3
2022-12-06T10:08:07.754Z,7.3
2022-12-06T10:09:08.298Z,7.3
2022-12-06T10:10:08.600Z,7.3
2022-12-06T10:11:09.098Z,7.3
2022-12-06T10:12:09.231Z,7.3
2022-12-06T10:13:09.439Z,7.3
2022-12-06T10:14:09.809Z,7.3
2022-12-06T10:15:09.946Z,8.1
2022-12-06T10:16:10.270Z,8.1
2022-12-06T10:17:10.523Z,8.1
2022-12-06T10:18:10.662Z,8.1
2022-12-06T10:19:10.794Z,8.1
2022-12-06T10:20:10.925Z,8.1
2022-12-06T10:21:11.088Z,8.1
2022-12-06T10:22:11.216Z,8.1
2022-12-06T10:23:11.345Z,8.1
2022-12-06T10:24:11.575Z,8.1
2022-12-06T10:25:11.791Z,8.7
2022-12-06T10:26:11.938Z,8.7
2022-12-06T10:27:12.076Z,8.7
2022-12-06T10:28:12.205Z,8.7
2022-12-06T10:29:12.347Z,8.7
2022-12-06T10:30:12.483Z,8.7
2022-12-06T10:31:12.726Z,8.7
2022-12-06T10:32:12.945Z,8.7
2022-12-06T10:33:13.076Z,8.7
2022-12-06T10:34:13.221Z,8.7
2022-12-06T10:35:13.354Z,9.2
2022-12-06T10:36:13.495Z,9.2
2022-12-06T10:37:13.633Z,9.2
2022-12-06T10:38:13.761Z,9.2
2022-12-06T10:39:13.894Z,9.2
2022-12-06T10:40:14.032Z,9.2
2022-12-06T10:41:14.171Z,9.2
2022-12-06T10:42:14.305Z,9.2
2022-12-06T10:43:14.440Z,9.2
2022-12-06T10:44:14.581Z,9.2
2022-12-06T10:45:14.723Z,9.7
2022-12-06T10:46:14.970Z,9.7
2022-12-06T10:47:15.353Z,9.7
2022-12-06T10:48:15.627Z,9.7
2022-12-06T10:49:15.765Z,9.7
2022-12-06T10:50:15.907Z,9.7
2022-12-06T10:51:16.042Z,9.7
2022-12-06T10:52:16.172Z,9.7
2022-12-06T10:53:16.304Z,9.7
2022-12-06T10:54:16.443Z,10.3
2022-12-06T10:55:16.573Z,10.3
2022-12-06T10:56:16.695Z,10.3
2022-12-06T10:57:16.833Z,10.3
2022-12-06T10:58:16.981Z,10.3
2022-12-06T10:59:17.118Z,10.3
2022-12-06T11:00:18.320Z,10.3
2022-12-06T11:01:19.114Z,10.3
2022-12-06T11:02:19.511Z,10.3
2022-12-06T11:03:19.758Z,10.3
2022-12-06T11:04:19.888Z,11
2022-12-06T11:05:20.021Z,11
2022-12-06T11:06:20.159Z,11
2022-12-06T11:07:20.292Z,11
2022-12-06T11:08:20.517Z,11
2022-12-06T11:09:20.779Z,11
2022-12-06T11:10:20.910Z,11
2022-12-06T11:11:21.040Z,11
2022-12-06T11:12:27.992Z,11
2022-12-06T11:13:31.914Z,11.4
2022-12-06T11:14:32.054Z,11.5
2022-12-06T11:15:32.187Z,11.5
2022-12-06T11:16:32.642Z,11.5
2022-12-06T11:17:32.910Z,11.5
2022-12-06T11:18:33.046Z,11.5
2022-12-06T11:19:33.184Z,11.5
2022-12-06T11:20:33.320Z,11.5
2022-12-06T11:21:33.465Z,11.5
2022-12-06T11:22:33.597Z,11.5
2022-12-06T11:23:33.732Z,11.5
2022-12-06T11:24:33.875Z,11.9
2022-12-06T11:25:34.008Z,11.9
2022-12-06T11:26:34.135Z,11.9
2022-12-06T11:27:34.264Z,11.9
2022-12-06T11:28:34.395Z,11.9
2022-12-06T11:29:34.527Z,11.9
2022-12-06T11:30:34.652Z,11.9
2022-12-06T11:31:34.956Z,11.9
2022-12-06T11:32:35.328Z,11.9
2022-12-06T11:33:35.464Z,11.9
2022-12-06T11:34:35.618Z,11.9
2022-12-06T11:35:35.754Z,11.9
2022-12-06T11:36:35.887Z,11.9
2022-12-06T11:37:44.472Z,11.9
2022-12-06T11:38:44.887Z,11.8
2022-12-06T11:39:45.025Z,11.8
2022-12-06T11:40:45.162Z,11.8
2022-12-06T11:41:45.301Z,11.8
2022-12-06T11:42:45.436Z,11.8
2022-12-06T11:43:45.580Z,11.8
2022-12-06T11:45:01.754Z,11.6
2022-12-06T11:46:02.306Z,11.6
2022-12-06T11:47:02.888Z,11.6
2022-12-06T11:48:03.200Z,11.6
2022-12-06T11:49:03.334Z,11.6
2022-12-06T11:50:11.962Z,11.6
2022-12-06T11:51:17.006Z,11.1
2022-12-06T11:52:17.145Z,11.1
2022-12-06T11:53:17.277Z,11.1
2022-12-06T11:54:17.415Z,10.8
2022-12-06T11:55:17.545Z,10.8
2022-12-06T11:56:17.692Z,10.8
2022-12-06T11:57:22.993Z,10.8
2022-12-06T11:58:23.209Z,10.6
2022-12-06T11:59:23.346Z,10.6
2022-12-06T12:00:23.481Z,10.6
2022-12-06T12:01:23.624Z,10.6
2022-12-06T12:02:23.904Z,10.6
2022-12-06T12:03:24.192Z,10.6
2022-12-06T12:04:24.422Z,10.2
2022-12-06T12:05:24.557Z,10.2
2022-12-06T12:06:24.685Z,10.2
2022-12-06T12:07:24.894Z,10.2
2022-12-06T12:08:32.695Z,10.2
2022-12-06T12:09:33.177Z,9.89
2022-12-06T12:10:33.311Z,9.89
2022-12-06T12:11:33.457Z,9.89
2022-12-06T12:12:33.595Z,9.89
2022-12-06T12:13:33.731Z,9.89
2022-12-06T12:14:33.866Z,9.3
2022-12-06T12:15:34.004Z,9.3
2022-12-06T12:16:34.272Z,9.3
2022-12-06T12:17:34.506Z,9.3
2022-12-06T12:18:34.641Z,9.3
2022-12-06T12:19:34.773Z,9.3
2022-12-06T12:20:34.909Z,9.3
2022-12-06T12:21:35.039Z,9.3
2022-12-06T12:22:35.167Z,9.3
2022-12-06T12:23:35.302Z,9.3
2022-12-06T12:25:11.148Z,9
2022-12-06T12:26:19.381Z,9.1
2022-12-06T12:27:28.349Z,9.1
2022-12-06T12:28:28.948Z,9.3
2022-12-06T12:29:29.089Z,9.3
2022-12-06T12:30:29.239Z,9.3
2022-12-06T12:31:29.469Z,9.3
2022-12-06T12:32:29.748Z,9.3
2022-12-06T12:33:29.889Z,9.3
2022-12-06T12:34:30.032Z,9.8
2022-12-06T12:35:30.172Z,9.8
2022-12-06T12:36:30.319Z,9.8
2022-12-06T12:37:30.449Z,9.8
2022-12-06T12:38:30.582Z,9.8
2022-12-06T12:39:30.711Z,9.8
2022-12-06T12:40:30.850Z,9.8
2022-12-06T12:41:30.999Z,9.8
2022-12-06T12:42:31.149Z,9.8
2022-12-06T12:43:31.281Z,9.8
2022-12-06T12:44:40.160Z,10.7
2022-12-06T12:45:40.595Z,10.8
2022-12-06T12:46:40.889Z,10.8
2022-12-06T12:47:41.016Z,10.8
2022-12-06T12:48:41.174Z,10.8
2022-12-06T12:49:41.331Z,10.8
2022-12-06T12:50:41.459Z,10.8
2022-12-06T12:51:48.147Z,10.8
2022-12-06T12:52:49.376Z,11.6
2022-12-06T12:53:49.849Z,11.7
2022-12-06T12:54:50.084Z,11.7
2022-12-06T12:55:50.212Z,11.7
2022-12-06T12:56:50.347Z,11.7
2022-12-06T12:57:50.487Z,11.7
2022-12-06T12:58:50.631Z,12
2022-12-06T12:59:50.774Z,12
2022-12-06T13:00:51.002Z,12
2022-12-06T13:01:51.565Z,12
2022-12-06T13:02:52.163Z,12
2022-12-06T13:03:52.450Z,12.1
2022-12-06T13:05:31.795Z,12.1
2022-12-06T13:06:34.707Z,12.1
2022-12-06T13:07:35.017Z,12.1
2022-12-06T13:08:35.232Z,12.1
2022-12-06T13:09:35.361Z,12.1
2022-12-06T13:10:35.492Z,12.1
2022-12-06T13:11:35.624Z,12.1
2022-12-06T13:12:35.791Z,12.1
2022-12-06T13:13:35.931Z,11.7
2022-12-06T13:14:36.066Z,11.7
2022-12-06T13:15:36.203Z,11.7
2022-12-06T13:16:36.468Z,11.7
2022-12-06T13:17:36.789Z,11.7
2022-12-06T13:18:36.916Z,11.7
2022-12-06T13:19:37.046Z,11.7
2022-12-06T13:20:37.178Z,11.7
2022-12-06T13:21:37.312Z,11.7
2022-12-06T13:22:37.443Z,11.7
2022-12-06T13:23:37.588Z,11.4
2022-12-06T13:24:37.727Z,11.4
2022-12-06T13:25:37.870Z,11.4
2022-12-06T13:26:38.000Z,11.4
2022-12-06T13:27:38.137Z,11.4
2022-12-06T13:28:38.268Z,11.4
2022-12-06T13:29:38.396Z,11.4
2022-12-06T13:30:38.741Z,11.4
2022-12-06T13:31:38.950Z,11.4
2022-12-06T13:32:39.079Z,11.4
2022-12-06T13:33:39.224Z,11
2022-12-06T13:34:39.357Z,11
2022-12-06T13:35:39.484Z,11
2022-12-06T13:36:39.612Z,11
2022-12-06T13:37:39.748Z,11
2022-12-06T13:38:39.877Z,11
2022-12-06T13:39:40.015Z,11
2022-12-06T13:40:40.158Z,11
2022-12-06T13:41:40.300Z,11
2022-12-06T13:42:40.432Z,11
2022-12-06T13:43:40.565Z,10.4
2022-12-06T13:44:40.717Z,10.4
2022-12-06T13:45:40.994Z,10.4
2022-12-06T13:46:41.394Z,10.4
2022-12-06T13:47:41.547Z,10.4
2022-12-06T13:48:41.679Z,10.4
2022-12-06T13:49:49.064Z,10.4
2022-12-06T13:50:49.406Z,10.3
2022-12-06T13:51:49.549Z,10.3
2022-12-06T13:52:49.678Z,10.3
2022-12-06T13:53:49.815Z,10.3